Ana Sayfa
METAR-TAF:

METAR-TAF

Havaalanları :

Dakar, Senegal

Enlem: 14-44N, Boylam: 017-30W, yükseklik: 27 m

Güncel hava durumu gözlemi

Rapor saat 04:00 UTC de 1 saat ve 16 dakika önce yapıldı.
Rüzgar kuzeydan 4 kt
Sıcaklık 21°C
Nem 88%
Basınç 1013 hPa
Görüş mesafesi: 8000 m

METAR: GOOY 220400Z 36004KT 8000 NSC 21/19 Q1013

Saat: 05:16 (05:16 UTC)

Tahmin

Rapor saat 23:30 UTC de 5 saat ve 46 dakika önce yapıldı.
Ayın 22'si saat 00 UTC'den ayın 23'si saat 06 UTC'ye kadar geçerli Tahmin
Rüzgar kuzeydan 6 kt
Görüş mesafesi: 8000 m

TAF: GOOY 212330Z 2200/2306 36006KT 8000 NSC

4.000'den fazla havaalanı için hava durumu gözlemleri ve tahminleri (METAR ve TAF raporları).

Kullanılabilir istasyonlar harita üzerinde sarı ve kırmızı noktalarla gösterilir.

İstasyonun adını görmek için fareyi noktanın üzerinde gezdirin.

Sonrasında hava gözlem ve tahminlerini görmek için tıklayın.

Haritayı değiştirmek için: yaklaştırmak için siyah artı işaretli yeşil düğmeye ve uzaklaştırmak için de eksi işaretli düğmeye hızla tıklayın; bitişik haritalar için yeşil okları kullanın.


METAR-TAF: